sensor_id;sensor_type;location;lat;lon;timestamp;P1;durP1;ratioP1;P2;durP2;ratioP2
72951;SDS011;61102;51.956;5.878;2023-05-07T00:01:07;3.67;;;1.27;;
72951;SDS011;61102;51.956;5.878;2023-05-07T00:03:33;3.08;;;1.02;;
72951;SDS011;61102;51.956;5.878;2023-05-07T00:06:00;3.17;;;1.08;;
72951;SDS011;61102;51.956;5.878;2023-05-07T00:08:26;3.95;;;1.45;;
72951;SDS011;61102;51.956;5.878;2023-05-07T00:10:52;4.25;;;1.30;;
72951;SDS011;61102;51.956;5.878;2023-05-07T00:13:18;4.18;;;1.40;;
72951;SDS011;61102;51.956;5.878;2023-05-07T00:15:45;4.95;;;1.20;;
72951;SDS011;61102;51.956;5.878;2023-05-07T00:18:11;3.08;;;1.23;;
72951;SDS011;61102;51.956;5.878;2023-05-07T00:20:37;3.92;;;1.20;;
72951;SDS011;61102;51.956;5.878;2023-05-07T00:23:03;6.20;;;1.60;;
72951;SDS011;61102;51.956;5.878;2023-05-07T00:25:30;4.25;;;1.33;;
72951;SDS011;61102;51.956;5.878;2023-05-07T00:27:56;3.45;;;1.25;;
72951;SDS011;61102;51.956;5.878;2023-05-07T00:30:28;3.08;;;1.13;;
72951;SDS011;61102;51.956;5.878;2023-05-07T00:32:54;3.40;;;1.15;;
72951;SDS011;61102;51.956;5.878;2023-05-07T00:35:20;4.28;;;1.20;;
72951;SDS011;61102;51.956;5.878;2023-05-07T00:37:47;4.35;;;1.33;;
72951;SDS011;61102;51.956;5.878;2023-05-07T00:40:14;5.47;;;1.60;;
72951;SDS011;61102;51.956;5.878;2023-05-07T00:42:40;4.07;;;1.38;;
72951;SDS011;61102;51.956;5.878;2023-05-07T00:45:07;3.03;;;1.10;;
72951;SDS011;61102;51.956;5.878;2023-05-07T00:47:33;4.25;;;1.40;;
72951;SDS011;61102;51.956;5.878;2023-05-07T00:49:59;4.63;;;1.83;;
72951;SDS011;61102;51.956;5.878;2023-05-07T00:52:26;3.45;;;1.25;;
72951;SDS011;61102;51.956;5.878;2023-05-07T00:54:53;5.00;;;1.40;;
72951;SDS011;61102;51.956;5.878;2023-05-07T00:57:20;4.00;;;1.38;;
72951;SDS011;61102;51.956;5.878;2023-05-07T00:59:48;4.72;;;1.52;;
72951;SDS011;61102;51.956;5.878;2023-05-07T01:02:14;5.10;;;1.67;;
72951;SDS011;61102;51.956;5.878;2023-05-07T01:04:41;3.33;;;1.27;;
72951;SDS011;61102;51.956;5.878;2023-05-07T01:07:10;4.95;;;1.38;;
72951;SDS011;61102;51.956;5.878;2023-05-07T01:09:37;3.80;;;1.40;;
72951;SDS011;61102;51.956;5.878;2023-05-07T01:12:03;5.13;;;1.40;;
72951;SDS011;61102;51.956;5.878;2023-05-07T01:14:30;3.28;;;1.23;;
72951;SDS011;61102;51.956;5.878;2023-05-07T01:16:58;4.85;;;1.58;;
72951;SDS011;61102;51.956;5.878;2023-05-07T01:19:25;4.82;;;1.73;;
72951;SDS011;61102;51.956;5.878;2023-05-07T01:21:52;5.35;;;1.75;;
72951;SDS011;61102;51.956;5.878;2023-05-07T01:24:27;5.38;;;1.73;;
72951;SDS011;61102;51.956;5.878;2023-05-07T01:26:53;5.35;;;1.70;;
72951;SDS011;61102;51.956;5.878;2023-05-07T01:29:23;4.63;;;1.63;;
72951;SDS011;61102;51.956;5.878;2023-05-07T01:31:50;3.72;;;1.38;;
72951;SDS011;61102;51.956;5.878;2023-05-07T01:34:18;3.70;;;1.23;;
72951;SDS011;61102;51.956;5.878;2023-05-07T01:36:47;4.68;;;1.73;;
72951;SDS011;61102;51.956;5.878;2023-05-07T01:39:15;4.18;;;1.52;;
72951;SDS011;61102;51.956;5.878;2023-05-07T01:41:42;5.18;;;1.73;;
72951;SDS011;61102;51.956;5.878;2023-05-07T01:44:10;4.57;;;1.50;;
72951;SDS011;61102;51.956;5.878;2023-05-07T01:46:39;4.90;;;1.63;;
72951;SDS011;61102;51.956;5.878;2023-05-07T01:49:06;4.60;;;1.70;;
72951;SDS011;61102;51.956;5.878;2023-05-07T01:51:34;5.05;;;1.73;;
72951;SDS011;61102;51.956;5.878;2023-05-07T01:54:02;3.50;;;1.38;;
72951;SDS011;61102;51.956;5.878;2023-05-07T01:56:29;5.25;;;1.95;;
72951;SDS011;61102;51.956;5.878;2023-05-07T01:58:56;5.10;;;1.60;;
72951;SDS011;61102;51.956;5.878;2023-05-07T02:01:22;6.20;;;1.83;;
72951;SDS011;61102;51.956;5.878;2023-05-07T02:03:49;5.10;;;1.88;;
72951;SDS011;61102;51.956;5.878;2023-05-07T02:06:22;5.22;;;1.50;;
72951;SDS011;61102;51.956;5.878;2023-05-07T02:08:48;5.05;;;1.52;;
72951;SDS011;61102;51.956;5.878;2023-05-07T02:11:15;5.00;;;1.70;;
72951;SDS011;61102;51.956;5.878;2023-05-07T02:13:43;4.50;;;1.58;;
72951;SDS011;61102;51.956;5.878;2023-05-07T02:16:11;7.05;;;2.60;;
72951;SDS011;61102;51.956;5.878;2023-05-07T02:18:40;5.30;;;1.95;;
72951;SDS011;61102;51.956;5.878;2023-05-07T02:21:06;5.35;;;2.00;;
72951;SDS011;61102;51.956;5.878;2023-05-07T02:23:32;5.43;;;2.20;;
72951;SDS011;61102;51.956;5.878;2023-05-07T02:25:59;6.10;;;2.63;;
72951;SDS011;61102;51.956;5.878;2023-05-07T02:28:29;6.25;;;2.33;;
72951;SDS011;61102;51.956;5.878;2023-05-07T02:31:03;6.82;;;2.22;;
72951;SDS011;61102;51.956;5.878;2023-05-07T02:33:30;5.47;;;2.28;;
72951;SDS011;61102;51.956;5.878;2023-05-07T02:36:04;6.28;;;2.50;;
72951;SDS011;61102;51.956;5.878;2023-05-07T02:38:33;6.10;;;2.08;;
72951;SDS011;61102;51.956;5.878;2023-05-07T02:40:59;4.90;;;1.98;;
72951;SDS011;61102;51.956;5.878;2023-05-07T02:43:26;6.40;;;2.58;;
72951;SDS011;61102;51.956;5.878;2023-05-07T02:46:05;5.82;;;2.35;;
72951;SDS011;61102;51.956;5.878;2023-05-07T02:48:36;5.95;;;2.38;;
72951;SDS011;61102;51.956;5.878;2023-05-07T02:51:02;6.35;;;2.40;;
72951;SDS011;61102;51.956;5.878;2023-05-07T02:53:30;6.93;;;2.83;;
72951;SDS011;61102;51.956;5.878;2023-05-07T02:55:57;7.80;;;2.85;;
72951;SDS011;61102;51.956;5.878;2023-05-07T02:58:27;5.90;;;2.80;;
72951;SDS011;61102;51.956;5.878;2023-05-07T03:00:57;7.05;;;2.60;;
72951;SDS011;61102;51.956;5.878;2023-05-07T03:03:46;6.53;;;2.42;;
72951;SDS011;61102;51.956;5.878;2023-05-07T03:06:12;7.60;;;3.60;;
72951;SDS011;61102;51.956;5.878;2023-05-07T03:08:39;9.38;;;3.40;;
72951;SDS011;61102;51.956;5.878;2023-05-07T03:11:05;6.90;;;2.80;;
72951;SDS011;61102;51.956;5.878;2023-05-07T03:13:31;6.40;;;2.58;;
72951;SDS011;61102;51.956;5.878;2023-05-07T03:15:57;6.15;;;2.78;;
72951;SDS011;61102;51.956;5.878;2023-05-07T03:18:24;7.38;;;3.20;;
72951;SDS011;61102;51.956;5.878;2023-05-07T03:20:51;6.03;;;2.45;;
72951;SDS011;61102;51.956;5.878;2023-05-07T03:25:44;6.00;;;2.17;;
72951;SDS011;61102;51.956;5.878;2023-05-07T03:28:10;5.85;;;2.28;;
72951;SDS011;61102;51.956;5.878;2023-05-07T03:30:42;5.80;;;2.55;;
72951;SDS011;61102;51.956;5.878;2023-05-07T03:33:09;5.70;;;2.55;;
72951;SDS011;61102;51.956;5.878;2023-05-07T03:35:35;6.07;;;2.47;;
72951;SDS011;61102;51.956;5.878;2023-05-07T03:38:01;5.80;;;2.50;;
72951;SDS011;61102;51.956;5.878;2023-05-07T03:40:31;6.22;;;2.63;;
72951;SDS011;61102;51.956;5.878;2023-05-07T03:42:57;7.72;;;2.90;;
72951;SDS011;61102;51.956;5.878;2023-05-07T03:45:26;7.03;;;2.75;;
72951;SDS011;61102;51.956;5.878;2023-05-07T03:48:04;6.00;;;2.28;;
72951;SDS011;61102;51.956;5.878;2023-05-07T03:50:31;5.95;;;2.17;;
72951;SDS011;61102;51.956;5.878;2023-05-07T03:52:57;6.00;;;2.45;;
72951;SDS011;61102;51.956;5.878;2023-05-07T03:55:24;6.72;;;2.70;;
72951;SDS011;61102;51.956;5.878;2023-05-07T03:57:56;6.72;;;3.63;;
72951;SDS011;61102;51.956;5.878;2023-05-07T04:00:23;6.65;;;2.75;;
72951;SDS011;61102;51.956;5.878;2023-05-07T04:02:50;5.70;;;2.22;;
72951;SDS011;61102;51.956;5.878;2023-05-07T04:05:23;7.07;;;2.63;;
72951;SDS011;61102;51.956;5.878;2023-05-07T04:07:53;5.75;;;2.25;;
72951;SDS011;61102;51.956;5.878;2023-05-07T04:10:25;6.20;;;2.45;;
72951;SDS011;61102;51.956;5.878;2023-05-07T04:12:56;5.38;;;2.08;;
72951;SDS011;61102;51.956;5.878;2023-05-07T04:15:24;7.28;;;2.50;;
72951;SDS011;61102;51.956;5.878;2023-05-07T04:17:50;6.78;;;2.42;;
72951;SDS011;61102;51.956;5.878;2023-05-07T04:20:19;6.32;;;2.60;;
72951;SDS011;61102;51.956;5.878;2023-05-07T04:22:51;6.75;;;2.80;;
72951;SDS011;61102;51.956;5.878;2023-05-07T04:25:17;6.28;;;2.83;;
72951;SDS011;61102;51.956;5.878;2023-05-07T04:27:44;7.25;;;3.40;;
72951;SDS011;61102;51.956;5.878;2023-05-07T04:30:12;6.32;;;3.03;;
72951;SDS011;61102;51.956;5.878;2023-05-07T04:32:38;6.43;;;3.05;;
72951;SDS011;61102;51.956;5.878;2023-05-07T04:35:06;6.45;;;2.50;;
72951;SDS011;61102;51.956;5.878;2023-05-07T04:37:33;8.07;;;3.35;;
72951;SDS011;61102;51.956;5.878;2023-05-07T04:40:00;7.13;;;3.30;;
72951;SDS011;61102;51.956;5.878;2023-05-07T04:42:28;9.23;;;4.80;;
72951;SDS011;61102;51.956;5.878;2023-05-07T04:44:55;8.82;;;4.43;;
72951;SDS011;61102;51.956;5.878;2023-05-07T04:47:23;10.05;;;4.40;;
72951;SDS011;61102;51.956;5.878;2023-05-07T04:49:50;7.50;;;3.92;;
72951;SDS011;61102;51.956;5.878;2023-05-07T04:52:16;8.02;;;4.13;;
72951;SDS011;61102;51.956;5.878;2023-05-07T04:54:42;7.28;;;3.40;;
72951;SDS011;61102;51.956;5.878;2023-05-07T04:57:11;7.85;;;3.97;;
72951;SDS011;61102;51.956;5.878;2023-05-07T04:59:39;6.40;;;2.70;;
72951;SDS011;61102;51.956;5.878;2023-05-07T05:02:05;6.38;;;2.78;;
72951;SDS011;61102;51.956;5.878;2023-05-07T05:04:32;7.93;;;4.10;;
72951;SDS011;61102;51.956;5.878;2023-05-07T05:06:58;8.05;;;4.20;;
72951;SDS011;61102;51.956;5.878;2023-05-07T05:09:24;5.55;;;2.53;;
72951;SDS011;61102;51.956;5.878;2023-05-07T05:11:50;7.47;;;3.08;;
72951;SDS011;61102;51.956;5.878;2023-05-07T05:14:17;9.10;;;3.50;;
72951;SDS011;61102;51.956;5.878;2023-05-07T05:16:43;6.45;;;2.90;;
72951;SDS011;61102;51.956;5.878;2023-05-07T05:19:12;5.30;;;2.33;;
72951;SDS011;61102;51.956;5.878;2023-05-07T05:21:40;7.18;;;2.65;;
72951;SDS011;61102;51.956;5.878;2023-05-07T05:24:09;5.90;;;2.75;;
72951;SDS011;61102;51.956;5.878;2023-05-07T05:26:38;7.88;;;4.05;;
72951;SDS011;61102;51.956;5.878;2023-05-07T05:29:05;7.90;;;3.30;;
72951;SDS011;61102;51.956;5.878;2023-05-07T05:31:32;6.88;;;3.13;;
72951;SDS011;61102;51.956;5.878;2023-05-07T05:33:59;7.07;;;3.70;;
72951;SDS011;61102;51.956;5.878;2023-05-07T05:36:26;6.20;;;2.90;;
72951;SDS011;61102;51.956;5.878;2023-05-07T05:38:56;6.72;;;2.97;;
72951;SDS011;61102;51.956;5.878;2023-05-07T05:41:25;6.25;;;3.10;;
72951;SDS011;61102;51.956;5.878;2023-05-07T05:43:52;5.50;;;1.92;;
72951;SDS011;61102;51.956;5.878;2023-05-07T05:46:19;6.07;;;2.88;;
72951;SDS011;61102;51.956;5.878;2023-05-07T05:48:47;6.20;;;3.00;;
72951;SDS011;61102;51.956;5.878;2023-05-07T05:51:15;5.68;;;2.30;;
72951;SDS011;61102;51.956;5.878;2023-05-07T05:53:42;6.50;;;2.97;;
72951;SDS011;61102;51.956;5.878;2023-05-07T05:56:08;7.00;;;3.10;;
72951;SDS011;61102;51.956;5.878;2023-05-07T05:58:36;5.95;;;2.55;;
72951;SDS011;61102;51.956;5.878;2023-05-07T06:01:05;6.70;;;3.20;;
72951;SDS011;61102;51.956;5.878;2023-05-07T06:03:34;6.70;;;3.10;;
72951;SDS011;61102;51.956;5.878;2023-05-07T06:06:05;8.63;;;4.32;;
72951;SDS011;61102;51.956;5.878;2023-05-07T06:08:31;8.10;;;3.90;;
72951;SDS011;61102;51.956;5.878;2023-05-07T06:10:58;6.57;;;3.40;;
72951;SDS011;61102;51.956;5.878;2023-05-07T06:13:26;7.05;;;3.15;;
72951;SDS011;61102;51.956;5.878;2023-05-07T06:15:52;7.30;;;3.50;;
72951;SDS011;61102;51.956;5.878;2023-05-07T06:18:19;7.40;;;3.60;;
72951;SDS011;61102;51.956;5.878;2023-05-07T06:20:46;8.23;;;3.30;;
72951;SDS011;61102;51.956;5.878;2023-05-07T06:23:20;6.93;;;2.90;;
72951;SDS011;61102;51.956;5.878;2023-05-07T06:25:50;6.15;;;2.53;;
72951;SDS011;61102;51.956;5.878;2023-05-07T06:28:19;6.57;;;2.90;;
72951;SDS011;61102;51.956;5.878;2023-05-07T06:30:47;7.82;;;3.67;;
72951;SDS011;61102;51.956;5.878;2023-05-07T06:33:17;6.50;;;3.40;;
72951;SDS011;61102;51.956;5.878;2023-05-07T06:35:43;7.97;;;4.05;;
72951;SDS011;61102;51.956;5.878;2023-05-07T06:38:09;6.85;;;3.38;;
72951;SDS011;61102;51.956;5.878;2023-05-07T06:40:40;7.43;;;3.63;;
72951;SDS011;61102;51.956;5.878;2023-05-07T06:43:06;6.30;;;3.20;;
72951;SDS011;61102;51.956;5.878;2023-05-07T06:45:47;8.88;;;4.75;;
72951;SDS011;61102;51.956;5.878;2023-05-07T06:48:13;7.22;;;3.00;;
72951;SDS011;61102;51.956;5.878;2023-05-07T06:50:54;7.57;;;4.07;;
72951;SDS011;61102;51.956;5.878;2023-05-07T06:53:22;7.47;;;3.92;;
72951;SDS011;61102;51.956;5.878;2023-05-07T06:58:18;6.88;;;3.20;;
72951;SDS011;61102;51.956;5.878;2023-05-07T07:00:44;6.45;;;2.97;;
72951;SDS011;61102;51.956;5.878;2023-05-07T07:03:12;6.90;;;3.17;;
72951;SDS011;61102;51.956;5.878;2023-05-07T07:08:09;7.35;;;4.13;;
72951;SDS011;61102;51.956;5.878;2023-05-07T07:10:36;8.52;;;4.50;;
72951;SDS011;61102;51.956;5.878;2023-05-07T07:13:03;7.60;;;4.32;;
72951;SDS011;61102;51.956;5.878;2023-05-07T07:15:29;7.40;;;4.18;;
72951;SDS011;61102;51.956;5.878;2023-05-07T07:17:56;7.65;;;4.38;;
72951;SDS011;61102;51.956;5.878;2023-05-07T07:20:23;8.13;;;4.43;;
72951;SDS011;61102;51.956;5.878;2023-05-07T07:22:50;8.90;;;4.93;;
72951;SDS011;61102;51.956;5.878;2023-05-07T07:25:16;8.93;;;5.43;;
72951;SDS011;61102;51.956;5.878;2023-05-07T07:27:47;9.52;;;4.85;;
72951;SDS011;61102;51.956;5.878;2023-05-07T07:30:14;8.07;;;4.60;;
72951;SDS011;61102;51.956;5.878;2023-05-07T07:32:44;7.95;;;4.00;;
72951;SDS011;61102;51.956;5.878;2023-05-07T07:35:10;8.30;;;4.30;;
72951;SDS011;61102;51.956;5.878;2023-05-07T07:37:38;10.68;;;6.15;;
72951;SDS011;61102;51.956;5.878;2023-05-07T07:40:04;9.73;;;5.53;;
72951;SDS011;61102;51.956;5.878;2023-05-07T07:42:32;10.43;;;5.45;;
72951;SDS011;61102;51.956;5.878;2023-05-07T07:44:59;9.73;;;4.93;;
72951;SDS011;61102;51.956;5.878;2023-05-07T07:47:29;8.75;;;4.63;;
72951;SDS011;61102;51.956;5.878;2023-05-07T07:49:55;10.35;;;6.38;;
72951;SDS011;61102;51.956;5.878;2023-05-07T07:52:22;9.45;;;5.28;;
72951;SDS011;61102;51.956;5.878;2023-05-07T07:54:48;10.40;;;5.28;;
72951;SDS011;61102;51.956;5.878;2023-05-07T07:57:15;9.13;;;5.07;;
72951;SDS011;61102;51.956;5.878;2023-05-07T07:59:43;8.05;;;4.50;;
72951;SDS011;61102;51.956;5.878;2023-05-07T08:02:12;9.23;;;4.70;;
72951;SDS011;61102;51.956;5.878;2023-05-07T08:04:38;10.00;;;5.00;;
72951;SDS011;61102;51.956;5.878;2023-05-07T08:07:06;8.68;;;4.82;;
72951;SDS011;61102;51.956;5.878;2023-05-07T08:09:36;9.90;;;4.50;;
72951;SDS011;61102;51.956;5.878;2023-05-07T08:12:04;8.77;;;4.88;;
72951;SDS011;61102;51.956;5.878;2023-05-07T08:14:33;8.88;;;5.13;;
72951;SDS011;61102;51.956;5.878;2023-05-07T08:17:00;8.90;;;4.93;;
72951;SDS011;61102;51.956;5.878;2023-05-07T08:19:27;10.07;;;5.85;;
72951;SDS011;61102;51.956;5.878;2023-05-07T08:21:55;7.90;;;4.55;;
72951;SDS011;61102;51.956;5.878;2023-05-07T08:24:23;9.93;;;5.00;;
72951;SDS011;61102;51.956;5.878;2023-05-07T08:26:50;9.70;;;5.15;;
72951;SDS011;61102;51.956;5.878;2023-05-07T08:29:16;10.80;;;5.55;;
72951;SDS011;61102;51.956;5.878;2023-05-07T08:31:46;8.77;;;4.00;;
72951;SDS011;61102;51.956;5.878;2023-05-07T08:34:12;9.80;;;5.10;;
72951;SDS011;61102;51.956;5.878;2023-05-07T08:36:41;9.48;;;4.57;;
72951;SDS011;61102;51.956;5.878;2023-05-07T08:39:08;9.00;;;5.15;;
72951;SDS011;61102;51.956;5.878;2023-05-07T08:41:35;10.77;;;4.88;;
72951;SDS011;61102;51.956;5.878;2023-05-07T08:44:02;9.75;;;5.05;;
72951;SDS011;61102;51.956;5.878;2023-05-07T08:46:31;8.68;;;4.85;;
72951;SDS011;61102;51.956;5.878;2023-05-07T08:48:58;8.82;;;4.75;;
72951;SDS011;61102;51.956;5.878;2023-05-07T08:51:24;7.32;;;3.67;;
72951;SDS011;61102;51.956;5.878;2023-05-07T08:53:51;8.20;;;4.00;;
72951;SDS011;61102;51.956;5.878;2023-05-07T08:56:23;9.15;;;5.00;;
72951;SDS011;61102;51.956;5.878;2023-05-07T08:58:52;10.77;;;5.82;;
72951;SDS011;61102;51.956;5.878;2023-05-07T09:01:22;9.82;;;4.35;;
72951;SDS011;61102;51.956;5.878;2023-05-07T09:03:51;8.40;;;4.30;;
72951;SDS011;61102;51.956;5.878;2023-05-07T09:06:19;8.23;;;4.38;;
72951;SDS011;61102;51.956;5.878;2023-05-07T09:08:53;9.27;;;4.72;;
72951;SDS011;61102;51.956;5.878;2023-05-07T09:11:22;10.18;;;4.65;;
72951;SDS011;61102;51.956;5.878;2023-05-07T09:13:54;10.50;;;6.00;;
72951;SDS011;61102;51.956;5.878;2023-05-07T09:16:26;9.02;;;4.53;;
72951;SDS011;61102;51.956;5.878;2023-05-07T09:18:53;9.70;;;5.03;;
72951;SDS011;61102;51.956;5.878;2023-05-07T09:21:22;9.32;;;5.25;;
72951;SDS011;61102;51.956;5.878;2023-05-07T09:23:50;8.02;;;4.25;;
72951;SDS011;61102;51.956;5.878;2023-05-07T09:26:21;7.18;;;3.53;;
72951;SDS011;61102;51.956;5.878;2023-05-07T09:28:48;9.00;;;3.90;;
72951;SDS011;61102;51.956;5.878;2023-05-07T09:31:15;9.38;;;4.93;;
72951;SDS011;61102;51.956;5.878;2023-05-07T09:33:41;9.55;;;5.53;;
72951;SDS011;61102;51.956;5.878;2023-05-07T09:36:09;8.88;;;5.13;;
72951;SDS011;61102;51.956;5.878;2023-05-07T09:38:38;9.02;;;4.50;;
72951;SDS011;61102;51.956;5.878;2023-05-07T09:41:08;6.90;;;3.67;;
72951;SDS011;61102;51.956;5.878;2023-05-07T09:43:54;8.48;;;4.35;;
72951;SDS011;61102;51.956;5.878;2023-05-07T09:46:25;9.77;;;4.95;;
72951;SDS011;61102;51.956;5.878;2023-05-07T09:48:57;10.00;;;4.50;;
72951;SDS011;61102;51.956;5.878;2023-05-07T09:51:28;7.65;;;3.85;;
72951;SDS011;61102;51.956;5.878;2023-05-07T09:53:57;7.78;;;4.10;;
72951;SDS011;61102;51.956;5.878;2023-05-07T09:56:27;10.10;;;4.45;;
72951;SDS011;61102;51.956;5.878;2023-05-07T09:58:57;7.93;;;3.75;;
72951;SDS011;61102;51.956;5.878;2023-05-07T10:01:31;9.32;;;4.82;;
72951;SDS011;61102;51.956;5.878;2023-05-07T10:03:58;10.10;;;5.32;;
72951;SDS011;61102;51.956;5.878;2023-05-07T10:06:25;8.90;;;3.90;;
72951;SDS011;61102;51.956;5.878;2023-05-07T10:08:52;8.55;;;4.03;;
72951;SDS011;61102;51.956;5.878;2023-05-07T10:13:46;9.68;;;5.15;;
72951;SDS011;61102;51.956;5.878;2023-05-07T10:16:14;8.65;;;3.97;;
72951;SDS011;61102;51.956;5.878;2023-05-07T10:18:45;9.02;;;4.32;;
72951;SDS011;61102;51.956;5.878;2023-05-07T10:21:17;7.47;;;3.88;;
72951;SDS011;61102;51.956;5.878;2023-05-07T10:23:50;7.82;;;4.13;;
72951;SDS011;61102;51.956;5.878;2023-05-07T10:26:22;8.75;;;4.85;;
72951;SDS011;61102;51.956;5.878;2023-05-07T10:28:53;8.85;;;4.53;;
72951;SDS011;61102;51.956;5.878;2023-05-07T10:34:21;9.60;;;4.57;;
72951;SDS011;61102;51.956;5.878;2023-05-07T10:36:54;7.22;;;3.10;;
72951;SDS011;61102;51.956;5.878;2023-05-07T10:39:22;8.82;;;4.50;;
72951;SDS011;61102;51.956;5.878;2023-05-07T10:44:28;7.70;;;3.42;;
72951;SDS011;61102;51.956;5.878;2023-05-07T10:47:08;7.20;;;3.30;;
72951;SDS011;61102;51.956;5.878;2023-05-07T10:52:16;6.53;;;3.03;;
72951;SDS011;61102;51.956;5.878;2023-05-07T10:58:22;6.97;;;2.85;;
72951;SDS011;61102;51.956;5.878;2023-05-07T11:00:57;5.78;;;2.67;;
72951;SDS011;61102;51.956;5.878;2023-05-07T11:03:30;8.43;;;3.30;;
72951;SDS011;61102;51.956;5.878;2023-05-07T11:06:11;9.57;;;4.72;;
72951;SDS011;61102;51.956;5.878;2023-05-07T11:11:19;7.25;;;3.67;;
72951;SDS011;61102;51.956;5.878;2023-05-07T11:14:13;6.22;;;2.97;;
72951;SDS011;61102;51.956;5.878;2023-05-07T11:16:47;6.60;;;3.00;;
72951;SDS011;61102;51.956;5.878;2023-05-07T11:25:06;7.32;;;3.50;;
72951;SDS011;61102;51.956;5.878;2023-05-07T11:27:33;7.32;;;3.60;;
72951;SDS011;61102;51.956;5.878;2023-05-07T11:30:00;6.80;;;2.85;;
72951;SDS011;61102;51.956;5.878;2023-05-07T11:32:27;8.18;;;3.10;;
72951;SDS011;61102;51.956;5.878;2023-05-07T11:34:56;8.57;;;4.15;;
72951;SDS011;61102;51.956;5.878;2023-05-07T11:37:25;6.70;;;3.20;;
72951;SDS011;61102;51.956;5.878;2023-05-07T11:40:08;7.93;;;3.25;;
72951;SDS011;61102;51.956;5.878;2023-05-07T11:42:37;7.75;;;3.33;;
72951;SDS011;61102;51.956;5.878;2023-05-07T11:45:05;5.43;;;2.30;;
72951;SDS011;61102;51.956;5.878;2023-05-07T11:47:33;6.53;;;3.20;;
72951;SDS011;61102;51.956;5.878;2023-05-07T11:50:06;6.68;;;2.75;;
72951;SDS011;61102;51.956;5.878;2023-05-07T11:52:33;5.57;;;2.33;;
72951;SDS011;61102;51.956;5.878;2023-05-07T11:55:00;6.97;;;3.33;;
72951;SDS011;61102;51.956;5.878;2023-05-07T11:57:29;6.35;;;2.50;;
72951;SDS011;61102;51.956;5.878;2023-05-07T11:59:56;7.00;;;3.75;;
72951;SDS011;61102;51.956;5.878;2023-05-07T12:02:24;7.03;;;3.10;;
72951;SDS011;61102;51.956;5.878;2023-05-07T12:04:51;7.05;;;3.22;;
72951;SDS011;61102;51.956;5.878;2023-05-07T12:07:17;7.80;;;3.83;;
72951;SDS011;61102;51.956;5.878;2023-05-07T12:09:44;7.05;;;3.25;;
72951;SDS011;61102;51.956;5.878;2023-05-07T12:12:11;5.90;;;2.38;;
72951;SDS011;61102;51.956;5.878;2023-05-07T12:14:40;7.90;;;3.83;;
72951;SDS011;61102;51.956;5.878;2023-05-07T12:17:11;7.22;;;3.35;;
72951;SDS011;61102;51.956;5.878;2023-05-07T12:19:38;7.90;;;3.63;;
72951;SDS011;61102;51.956;5.878;2023-05-07T12:22:07;7.47;;;3.33;;
72951;SDS011;61102;51.956;5.878;2023-05-07T12:24:47;6.57;;;2.72;;
72951;SDS011;61102;51.956;5.878;2023-05-07T12:27:18;8.25;;;3.33;;
72951;SDS011;61102;51.956;5.878;2023-05-07T12:29:46;5.50;;;2.42;;
72951;SDS011;61102;51.956;5.878;2023-05-07T12:32:13;5.45;;;2.28;;
72951;SDS011;61102;51.956;5.878;2023-05-07T12:34:42;5.95;;;2.58;;
72951;SDS011;61102;51.956;5.878;2023-05-07T12:39:42;5.43;;;2.30;;
72951;SDS011;61102;51.956;5.878;2023-05-07T12:42:10;6.53;;;2.80;;
72951;SDS011;61102;51.956;5.878;2023-05-07T12:44:43;7.40;;;2.92;;
72951;SDS011;61102;51.956;5.878;2023-05-07T12:47:14;5.97;;;2.67;;
72951;SDS011;61102;51.956;5.878;2023-05-07T12:49:41;5.80;;;2.40;;
72951;SDS011;61102;51.956;5.878;2023-05-07T12:52:11;6.35;;;2.80;;
72951;SDS011;61102;51.956;5.878;2023-05-07T12:54:37;7.10;;;3.30;;
72951;SDS011;61102;51.956;5.878;2023-05-07T12:57:05;4.80;;;2.10;;
72951;SDS011;61102;51.956;5.878;2023-05-07T12:59:41;6.60;;;3.00;;
72951;SDS011;61102;51.956;5.878;2023-05-07T13:02:08;6.75;;;2.92;;
72951;SDS011;61102;51.956;5.878;2023-05-07T13:04:36;8.40;;;4.03;;
72951;SDS011;61102;51.956;5.878;2023-05-07T13:07:03;6.25;;;2.88;;
72951;SDS011;61102;51.956;5.878;2023-05-07T13:09:29;6.07;;;2.55;;
72951;SDS011;61102;51.956;5.878;2023-05-07T13:11:56;5.93;;;2.35;;
72951;SDS011;61102;51.956;5.878;2023-05-07T13:14:25;4.53;;;1.83;;
72951;SDS011;61102;51.956;5.878;2023-05-07T13:16:52;5.65;;;2.38;;
72951;SDS011;61102;51.956;5.878;2023-05-07T13:19:18;6.03;;;2.53;;
72951;SDS011;61102;51.956;5.878;2023-05-07T13:21:44;5.65;;;2.45;;
72951;SDS011;61102;51.956;5.878;2023-05-07T13:24:11;6.55;;;2.97;;
72951;SDS011;61102;51.956;5.878;2023-05-07T13:26:39;6.00;;;2.75;;
72951;SDS011;61102;51.956;5.878;2023-05-07T13:29:06;6.32;;;2.75;;
72951;SDS011;61102;51.956;5.878;2023-05-07T13:31:32;6.15;;;2.78;;
72951;SDS011;61102;51.956;5.878;2023-05-07T13:33:59;7.57;;;2.97;;
72951;SDS011;61102;51.956;5.878;2023-05-07T13:36:25;7.55;;;3.15;;
72951;SDS011;61102;51.956;5.878;2023-05-07T13:38:52;6.10;;;2.40;;
72951;SDS011;61102;51.956;5.878;2023-05-07T13:41:18;5.50;;;2.42;;
72951;SDS011;61102;51.956;5.878;2023-05-07T13:46:11;7.80;;;3.72;;
72951;SDS011;61102;51.956;5.878;2023-05-07T13:48:38;8.93;;;3.75;;
72951;SDS011;61102;51.956;5.878;2023-05-07T13:51:04;5.93;;;2.70;;
72951;SDS011;61102;51.956;5.878;2023-05-07T13:53:30;6.78;;;2.60;;
72951;SDS011;61102;51.956;5.878;2023-05-07T13:55:56;8.20;;;3.22;;
72951;SDS011;61102;51.956;5.878;2023-05-07T13:58:22;5.95;;;2.58;;
72951;SDS011;61102;51.956;5.878;2023-05-07T14:00:48;6.53;;;2.65;;
72951;SDS011;61102;51.956;5.878;2023-05-07T14:03:15;7.88;;;2.60;;
72951;SDS011;61102;51.956;5.878;2023-05-07T14:05:43;7.85;;;3.53;;
72951;SDS011;61102;51.956;5.878;2023-05-07T14:08:09;6.10;;;2.55;;
72951;SDS011;61102;51.956;5.878;2023-05-07T14:10:36;5.47;;;1.80;;
72951;SDS011;61102;51.956;5.878;2023-05-07T14:13:02;6.15;;;2.25;;
72951;SDS011;61102;51.956;5.878;2023-05-07T14:15:28;5.97;;;2.45;;
72951;SDS011;61102;51.956;5.878;2023-05-07T14:17:55;5.63;;;2.30;;
72951;SDS011;61102;51.956;5.878;2023-05-07T14:20:23;6.40;;;2.03;;
72951;SDS011;61102;51.956;5.878;2023-05-07T14:22:49;6.40;;;2.50;;
72951;SDS011;61102;51.956;5.878;2023-05-07T14:25:15;5.82;;;2.67;;
72951;SDS011;61102;51.956;5.878;2023-05-07T14:27:45;5.45;;;2.08;;
72951;SDS011;61102;51.956;5.878;2023-05-07T14:30:11;6.07;;;2.10;;
72951;SDS011;61102;51.956;5.878;2023-05-07T14:32:38;6.68;;;3.28;;
72951;SDS011;61102;51.956;5.878;2023-05-07T14:35:04;6.43;;;2.50;;
72951;SDS011;61102;51.956;5.878;2023-05-07T14:37:30;6.97;;;2.30;;
72951;SDS011;61102;51.956;5.878;2023-05-07T14:39:56;5.68;;;1.98;;
72951;SDS011;61102;51.956;5.878;2023-05-07T14:42:25;7.03;;;2.40;;
72951;SDS011;61102;51.956;5.878;2023-05-07T14:44:54;6.68;;;2.42;;
72951;SDS011;61102;51.956;5.878;2023-05-07T14:47:22;5.40;;;1.95;;
72951;SDS011;61102;51.956;5.878;2023-05-07T14:49:49;4.90;;;1.98;;
72951;SDS011;61102;51.956;5.878;2023-05-07T14:52:15;4.95;;;1.90;;
72951;SDS011;61102;51.956;5.878;2023-05-07T14:54:41;6.15;;;2.50;;
72951;SDS011;61102;51.956;5.878;2023-05-07T14:57:08;7.30;;;2.65;;
72951;SDS011;61102;51.956;5.878;2023-05-07T14:59:35;6.05;;;2.20;;
72951;SDS011;61102;51.956;5.878;2023-05-07T15:02:03;6.32;;;2.30;;
72951;SDS011;61102;51.956;5.878;2023-05-07T15:04:31;6.95;;;2.53;;
72951;SDS011;61102;51.956;5.878;2023-05-07T15:06:57;5.63;;;1.95;;
72951;SDS011;61102;51.956;5.878;2023-05-07T15:09:23;5.38;;;1.90;;
72951;SDS011;61102;51.956;5.878;2023-05-07T15:11:49;6.47;;;1.67;;
72951;SDS011;61102;51.956;5.878;2023-05-07T15:14:16;3.38;;;1.10;;
72951;SDS011;61102;51.956;5.878;2023-05-07T15:16:42;3.53;;;1.20;;
72951;SDS011;61102;51.956;5.878;2023-05-07T15:19:08;3.30;;;1.10;;
72951;SDS011;61102;51.956;5.878;2023-05-07T15:21:34;4.13;;;1.20;;
72951;SDS011;61102;51.956;5.878;2023-05-07T15:24:02;2.00;;;0.60;;
72951;SDS011;61102;51.956;5.878;2023-05-07T15:26:28;2.20;;;0.50;;
72951;SDS011;61102;51.956;5.878;2023-05-07T15:28:56;1.98;;;0.60;;